메인 페이지
METAR-TAF:

METAR-TAF

공항 :

Guymon, 오클라호마, 미국

위도: 36-40-54N, 경도: 101-30-19W, 고도: 952m

현재 날씨관측

예보는 19분 전, 00:53시(UTC)에 발표되었습니다.
북북동6kt
온도 27°C
습도 51%
기압 1015 hPa
시정: 16.1km
맑음

METAR: KGUY 150053Z AUTO 03006KT 10SM CLR 27/16 A2996 RMK AO2 SLP100 T02720156

시각: 20:12 (01:12 UTC)

예보

예보는 1 시간 52분 전, 23:20시(UTC)에 발표되었습니다.
예보 대상 시간: 15일 00시부터 15일 24시까지 (UTC)
7kt
시정: 10km
고도 4000ft 상공 구름 보통
고도 10000ft 상공 구름 보통
15일 1700시부터 (UTC)
남동8kt
시정: 10km
고도 9000ft 상공 구름 조금
고도 20000ft 상공 구름 조금

TAF: KGUY 142320Z 1500/1524 01007KT P6SM SCT040 SCT100 FM151700 14008KT P6SM FEW090 FEW200

4,000개 이상의 공항 관측 자료 및 예보 (METAR 및 TAF 보고).

지도상에서 검색 가능한 기상관측소가 노란 점과 빨간 점으로 표시되어 있습니다.

기상관측소 명을 보려면 표시 위로 마우스를 이동하세요.

날씨 관측과 예보를 보려면 클릭하세요.

지도 변경 : 확대하려면 엑스 표시가 있는 녹색 버튼, 축소하려면 빼기 표시가 있는 녹색 버튼, 다음 페이지의 지도를 보려면 녹색 화살표를 클릭하세요.


METAR-TAF: